Terminal Aerodrome Forecast
Issued by NWS

Home | Current Version | Previous Version | Text Only | Print | Product List | Glossary On
Versions: 1 2 3 4 5 6 7 8 9 10 11 12 13 14 15 16
494
FTUS44 KCRP 261138
TAFALI
TAF
KALI 261138Z 2612/2712 09006KT P6SM FEW007 SCT025 OVC100
     FM261600 05006KT P6SM BKN050 OVC120
     FM262000 02008KT P6SM VCTS BKN040CB OVC150
      TEMPO 2622/2702 VRB15G25KT 4SM TSRA BR OVC030CB
     FM270400 02008KT P6SM VCSH SCT025 OVC120
     FM270700 02010KT P6SM OVC020=

USA.gov is the U.S. government's official web portal to all federal, state and local government web resources and services.